createdAt,value
2022-11-02T00:00:55.682Z,101149.97
2022-11-02T00:03:24.056Z,101128.69
2022-11-02T00:05:52.210Z,101120.72
2022-11-02T00:08:21.805Z,101128.78
2022-11-02T00:10:49.955Z,101150.00
2022-11-02T00:13:21.223Z,101157.47
2022-11-02T00:15:49.409Z,101170.00
2022-11-02T00:18:17.718Z,101111.19
2022-11-02T00:20:45.830Z,101085.78
2022-11-02T00:23:14.347Z,101149.25
2022-11-02T00:25:47.183Z,101079.50
2022-11-02T00:28:15.835Z,101116.50
2022-11-02T00:30:44.600Z,101138.78
2022-11-02T00:33:13.045Z,101129.28
2022-11-02T00:35:41.593Z,101131.03
2022-11-02T00:38:09.962Z,101117.81
2022-11-02T00:40:38.135Z,101124.09
2022-11-02T00:43:08.391Z,101070.28
2022-11-02T00:45:36.623Z,101071.22
2022-11-02T00:48:05.615Z,101088.78
2022-11-02T00:50:33.983Z,101132.06
2022-11-02T00:53:02.492Z,101113.50
2022-11-02T00:55:30.762Z,101097.56
2022-11-02T00:58:04.364Z,101113.34
2022-11-02T01:00:34.106Z,101094.88
2022-11-02T01:03:02.495Z,101116.00
2022-11-02T01:05:31.851Z,101117.81
2022-11-02T01:08:00.001Z,101095.84
2022-11-02T01:10:28.565Z,101107.19
2022-11-02T01:12:56.763Z,101122.34
2022-11-02T01:15:24.909Z,101121.28
2022-11-02T01:17:54.374Z,101108.06
2022-11-02T01:20:22.530Z,101125.78
2022-11-02T01:22:50.641Z,101104.63
2022-11-02T01:25:20.175Z,101114.28
2022-11-02T01:27:48.413Z,101109.88
2022-11-02T01:30:16.674Z,101100.13
2022-11-02T01:32:45.307Z,101104.59
2022-11-02T01:35:15.090Z,101103.88
2022-11-02T01:37:43.333Z,101105.44
2022-11-02T01:40:12.254Z,101041.13
2022-11-02T01:42:40.489Z,101109.88
2022-11-02T01:45:10.626Z,101077.16
2022-11-02T01:47:40.165Z,101099.06
2022-11-02T01:50:11.407Z,101096.41
2022-11-02T01:52:41.509Z,101096.41
2022-11-02T01:55:11.917Z,101107.88
2022-11-02T01:57:41.712Z,101117.72
2022-11-02T02:00:11.974Z,101103.50
2022-11-02T02:02:47.079Z,101135.41
2022-11-02T02:05:16.182Z,101120.03
2022-11-02T02:07:46.441Z,101127.09
2022-11-02T02:10:14.709Z,101125.44
2022-11-02T02:12:44.041Z,101132.47
2022-11-02T02:15:13.933Z,101129.75
2022-11-02T02:17:48.212Z,101113.88
2022-11-02T02:20:26.206Z,101024.25
2022-11-02T02:23:25.264Z,101122.69
2022-11-02T02:26:08.791Z,101123.47
2022-11-02T02:28:42.645Z,101136.75
2022-11-02T02:31:16.055Z,101122.47
2022-11-02T02:33:47.841Z,101150.91
2022-11-02T02:36:22.344Z,101120.84
2022-11-02T02:38:57.630Z,101134.38
2022-11-02T02:41:32.767Z,101111.25
2022-11-02T02:44:04.705Z,101119.28
2022-11-02T02:46:37.151Z,101087.53
2022-11-02T02:49:06.377Z,101127.25
2022-11-02T02:51:35.373Z,101147.66
2022-11-02T02:54:05.868Z,101117.66
2022-11-02T02:56:38.335Z,101140.53
2022-11-02T02:59:12.521Z,101147.56
2022-11-02T03:01:41.212Z,101141.63
2022-11-02T03:04:11.458Z,101152.06
2022-11-02T03:06:40.009Z,101160.00
2022-11-02T03:09:14.840Z,101149.31
2022-11-02T03:11:51.208Z,101156.34
2022-11-02T03:14:28.821Z,101152.00
2022-11-02T03:17:07.141Z,101163.38
2022-11-02T03:19:42.498Z,101145.75
2022-11-02T03:22:17.072Z,101168.78
2022-11-02T03:24:50.363Z,101167.03
2022-11-02T03:27:22.172Z,101178.47
2022-11-02T03:29:56.169Z,101129.00
2022-11-02T03:32:27.741Z,101158.13
2022-11-02T03:34:57.418Z,101183.00
2022-11-02T03:37:29.262Z,101182.97
2022-11-02T03:40:02.793Z,101185.63
2022-11-02T03:42:33.908Z,101195.34
2022-11-02T03:45:08.580Z,101212.25
2022-11-02T03:47:37.960Z,101191.97
2022-11-02T03:50:10.896Z,101198.13
2022-11-02T03:52:42.631Z,101196.34
2022-11-02T03:55:13.756Z,101200.81
2022-11-02T03:57:44.611Z,101223.78
2022-11-02T04:00:18.523Z,101229.03
2022-11-02T04:02:57.596Z,101213.00
2022-11-02T04:05:30.490Z,101223.53
2022-11-02T04:08:18.018Z,101228.78
2022-11-02T04:11:04.243Z,101225.44
2022-11-02T04:13:49.804Z,101233.69
2022-11-02T04:16:23.639Z,101227.44
2022-11-02T04:19:14.156Z,101253.03
2022-11-02T04:22:04.110Z,101235.56
2022-11-02T04:24:51.592Z,101272.53
2022-11-02T04:27:21.350Z,101306.13
2022-11-02T04:29:51.161Z,101285.72
2022-11-02T04:32:35.487Z,101278.59
2022-11-02T04:35:05.267Z,101277.78
2022-11-02T04:37:57.080Z,101306.03
2022-11-02T04:40:25.367Z,101306.78
2022-11-02T04:42:54.459Z,101327.16
2022-11-02T04:45:22.778Z,101302.56
2022-11-02T04:47:52.522Z,101334.19
2022-11-02T04:50:20.777Z,101324.50
2022-11-02T04:52:56.599Z,101345.63
2022-11-02T04:55:25.057Z,101354.63
2022-11-02T04:57:54.481Z,101364.34
2022-11-02T05:00:24.679Z,101360.00
2022-11-02T05:02:55.607Z,101374.19
2022-11-02T05:05:25.458Z,101379.47
2022-11-02T05:07:56.906Z,101363.56
2022-11-02T05:10:25.235Z,101383.94
2022-11-02T05:12:58.507Z,101404.22
2022-11-02T05:15:30.419Z,101416.59
2022-11-02T05:18:02.093Z,101365.38
2022-11-02T05:20:31.842Z,101409.53
2022-11-02T05:23:00.020Z,101383.94
2022-11-02T05:25:28.268Z,101351.28
2022-11-02T05:27:57.822Z,101370.69
2022-11-02T05:30:26.507Z,101432.50
2022-11-02T05:32:57.597Z,101427.31
2022-11-02T05:35:27.696Z,101430.69
2022-11-02T05:37:56.511Z,101175.09
2022-11-02T05:40:25.480Z,101443.06
2022-11-02T05:43:00.210Z,101438.78
2022-11-02T05:45:29.284Z,101407.13
2022-11-02T05:47:57.551Z,101464.38
2022-11-02T05:50:27.275Z,101496.28
2022-11-02T05:52:55.667Z,101473.28
2022-11-02T05:55:24.996Z,101488.34
2022-11-02T05:57:54.004Z,101462.78
2022-11-02T06:00:22.894Z,101489.19
2022-11-02T06:02:57.185Z,101346.31
2022-11-02T06:05:27.355Z,101488.38
2022-11-02T06:07:59.394Z,101496.31
2022-11-02T06:10:27.976Z,101504.28
2022-11-02T06:12:57.526Z,101522.84
2022-11-02T06:15:25.756Z,101503.41
2022-11-02T06:17:53.916Z,101508.72
2022-11-02T06:20:22.062Z,101519.38
2022-11-02T06:22:51.798Z,101540.66
2022-11-02T06:25:19.885Z,101535.41
2022-11-02T06:27:56.179Z,101552.19
2022-11-02T06:30:27.898Z,101529.22
2022-11-02T06:32:56.100Z,101542.50
2022-11-02T06:35:24.593Z,101573.47
2022-11-02T06:37:54.060Z,101555.69
2022-11-02T06:40:25.637Z,101580.53
2022-11-02T06:43:15.387Z,101592.06
2022-11-02T06:45:45.109Z,101608.88
2022-11-02T06:48:13.374Z,101599.22
2022-11-02T06:50:41.539Z,101612.47
2022-11-02T06:53:11.259Z,101565.66
2022-11-02T06:55:39.461Z,101622.25
2022-11-02T06:58:07.618Z,101635.53
2022-11-02T07:00:35.812Z,101555.09
2022-11-02T07:03:06.114Z,101617.81
2022-11-02T07:05:35.376Z,101652.16
2022-11-02T07:08:03.986Z,101640.59
2022-11-02T07:10:35.369Z,101639.75
2022-11-02T07:13:04.060Z,101653.94
2022-11-02T07:15:32.428Z,101651.22
2022-11-02T07:18:00.592Z,101616.69
2022-11-02T07:20:30.294Z,101643.81
2022-11-02T07:23:00.301Z,101664.84
2022-11-02T07:25:31.055Z,101675.06
2022-11-02T07:28:01.171Z,101680.09
2022-11-02T07:30:29.761Z,101667.34
2022-11-02T07:32:58.282Z,101681.16
2022-11-02T07:35:26.642Z,101711.13
2022-11-02T07:37:58.468Z,101633.22
2022-11-02T07:40:27.184Z,101719.56
2022-11-02T07:42:55.426Z,101585.84
2022-11-02T07:45:33.897Z,101661.84
2022-11-02T07:48:02.044Z,101720.56
2022-11-02T07:50:30.315Z,101650.28
2022-11-02T07:53:00.269Z,101729.31
2022-11-02T07:55:30.123Z,101729.13
2022-11-02T07:58:00.068Z,101708.91
2022-11-02T08:00:29.842Z,101683.50
2022-11-02T08:03:01.118Z,101744.72
2022-11-02T08:05:30.930Z,101753.22
2022-11-02T08:07:59.345Z,101732.34
2022-11-02T08:10:28.285Z,101713.38
2022-11-02T08:12:57.442Z,101749.25
2022-11-02T08:15:25.910Z,101715.13
2022-11-02T08:18:06.906Z,101752.22
2022-11-02T08:20:36.513Z,101751.44
2022-11-02T08:23:05.409Z,101750.81
2022-11-02T08:25:33.953Z,101767.16
2022-11-02T08:28:02.966Z,101769.69
2022-11-02T08:30:32.675Z,101731.28
2022-11-02T08:33:05.573Z,101670.44
2022-11-02T08:35:34.529Z,101778.22
2022-11-02T08:38:03.338Z,101751.59
2022-11-02T08:40:32.153Z,101780.84
2022-11-02T08:43:04.761Z,101792.66
2022-11-02T08:46:00.544Z,101784.53
2022-11-02T08:48:26.017Z,101767.31
2022-11-02T08:50:54.460Z,101778.56
2022-11-02T08:53:22.557Z,101795.19
2022-11-02T08:55:50.719Z,101797.28
2022-11-02T08:58:19.364Z,101799.25
2022-11-02T09:00:47.734Z,101790.53
2022-11-02T09:03:19.541Z,101787.03
2022-11-02T09:05:52.142Z,101808.06
2022-11-02T09:08:21.477Z,101786.81
2022-11-02T09:10:52.286Z,101812.88
2022-11-02T09:13:25.340Z,101816.16
2022-11-02T09:15:55.414Z,101798.47
2022-11-02T09:18:24.228Z,101797.94
2022-11-02T09:20:53.728Z,101789.06
2022-11-02T09:23:23.052Z,101797.69
2022-11-02T09:25:51.217Z,101811.56
2022-11-02T09:28:19.403Z,101822.59
2022-11-02T09:30:47.622Z,101754.22
2022-11-02T09:33:16.169Z,101838.63
2022-11-02T09:35:46.160Z,101835.22
2022-11-02T09:38:16.107Z,101822.59
2022-11-02T09:40:46.985Z,101824.91
2022-11-02T09:43:21.754Z,101816.44
2022-11-02T09:45:54.965Z,101821.59
2022-11-02T09:48:28.947Z,101835.78
2022-11-02T09:51:03.178Z,101831.56
2022-11-02T09:53:39.884Z,101832.59
2022-11-02T09:56:09.027Z,101839.72
2022-11-02T09:58:39.126Z,101833.34
2022-11-02T10:01:18.201Z,101818.47
2022-11-02T10:03:59.930Z,101836.06
2022-11-02T10:06:28.273Z,101817.34
2022-11-02T10:09:02.396Z,101800.34
2022-11-02T10:14:14.052Z,101848.69
2022-11-02T10:16:47.205Z,101850.72
2022-11-02T10:19:17.455Z,101822.94
2022-11-02T10:21:48.249Z,101840.03
2022-11-02T10:24:28.874Z,101881.19
2022-11-02T10:26:58.273Z,101877.25
2022-11-02T10:29:35.909Z,101879.72
2022-11-02T10:32:04.363Z,101883.75
2022-11-02T10:34:34.002Z,101684.38
2022-11-02T10:37:23.702Z,101873.59
2022-11-02T10:40:00.952Z,101868.34
2022-11-02T10:42:40.017Z,101875.88
2022-11-02T10:45:34.200Z,101818.50
2022-11-02T10:48:07.137Z,101877.44
2022-11-02T10:50:46.148Z,101860.56
2022-11-02T10:53:40.203Z,101879.84
2022-11-02T10:56:12.276Z,101813.22
2022-11-02T10:58:43.495Z,101851.81
2022-11-02T11:01:13.151Z,101878.16
2022-11-02T11:03:59.089Z,101848.78
2022-11-02T11:06:29.894Z,101844.19
2022-11-02T11:09:03.768Z,101849.28
2022-11-02T11:11:35.151Z,101725.06
2022-11-02T11:16:55.975Z,101873.31
2022-11-02T11:19:44.148Z,101845.06
2022-11-02T11:22:27.781Z,101789.91
2022-11-02T11:25:26.011Z,101877.66
2022-11-02T11:27:58.932Z,101864.91
2022-11-02T11:30:54.121Z,101878.03
2022-11-02T11:33:18.753Z,101858.53
2022-11-02T11:35:50.618Z,101862.00
2022-11-02T11:38:20.878Z,101842.28
2022-11-02T11:40:53.823Z,101858.81
2022-11-02T11:43:25.950Z,101822.66
2022-11-02T11:46:05.339Z,101866.84
2022-11-02T11:48:40.769Z,101864.94
2022-11-02T11:51:28.125Z,101841.13
2022-11-02T11:54:19.315Z,101871.25
2022-11-02T11:56:47.918Z,101849.72
2022-11-02T11:59:29.504Z,101850.47
2022-11-02T12:01:59.485Z,101838.25
2022-11-02T12:04:29.467Z,101775.84
2022-11-02T12:07:24.599Z,101849.25
2022-11-02T12:10:02.968Z,101837.00
2022-11-02T12:12:42.090Z,101840.94
2022-11-02T12:15:27.506Z,101817.34
2022-11-02T12:18:07.422Z,101834.09
2022-11-02T12:20:55.662Z,101814.75
2022-11-02T12:23:33.850Z,101829.13
2022-11-02T12:26:13.444Z,101533.25
2022-11-02T12:28:49.358Z,101819.47
2022-11-02T12:31:25.613Z,101835.00
2022-11-02T12:34:05.364Z,101847.75
2022-11-02T12:37:11.221Z,101827.19
2022-11-02T12:39:42.104Z,101677.31
2022-11-02T12:42:24.005Z,101828.91
2022-11-02T12:45:03.664Z,101778.38
2022-11-02T12:47:52.778Z,101801.53
2022-11-02T12:50:30.239Z,101794.53
2022-11-02T12:53:09.576Z,101805.50
2022-11-02T12:55:42.053Z,101808.00
2022-11-02T12:58:17.235Z,101783.56
2022-11-02T13:00:46.754Z,101788.75
2022-11-02T13:03:26.350Z,101793.22
2022-11-02T13:06:00.933Z,101780.75
2022-11-02T13:08:35.172Z,101785.03
2022-11-02T13:11:07.402Z,101756.94
2022-11-02T13:13:39.736Z,101795.03
2022-11-02T13:16:09.515Z,101801.25
2022-11-02T13:18:43.186Z,101788.81
2022-11-02T13:21:13.028Z,101785.47
2022-11-02T13:23:45.012Z,101776.03
2022-11-02T13:26:25.654Z,101745.88
2022-11-02T13:28:56.022Z,101737.19
2022-11-02T13:31:29.647Z,101768.19
2022-11-02T13:34:03.694Z,101770.09
2022-11-02T13:36:32.411Z,101756.66
2022-11-02T13:39:04.573Z,101738.31
2022-11-02T13:41:50.213Z,101759.31
2022-11-02T13:44:45.670Z,101765.56
2022-11-02T13:47:28.001Z,101731.72
2022-11-02T13:49:58.287Z,101744.16
2022-11-02T13:52:35.622Z,101747.72
2022-11-02T13:55:06.175Z,101754.97
2022-11-02T13:57:36.268Z,101748.78
2022-11-02T14:00:08.025Z,101730.88
2022-11-02T14:02:39.024Z,101680.09
2022-11-02T14:05:09.635Z,101718.09
2022-11-02T14:07:41.015Z,101687.41
2022-11-02T14:10:14.880Z,101708.50
2022-11-02T14:12:44.826Z,101710.34
2022-11-02T14:15:49.738Z,101718.22
2022-11-02T14:18:31.264Z,101670.50
2022-11-02T14:21:39.576Z,101709.22
2022-11-02T14:24:41.057Z,101716.28
2022-11-02T14:27:30.987Z,101654.22
2022-11-02T14:29:59.790Z,101682.50
2022-11-02T14:32:40.993Z,101703.44
2022-11-02T14:35:18.906Z,101707.91
2022-11-02T14:38:02.072Z,101700.06
2022-11-02T14:40:34.177Z,101675.53
2022-11-02T14:43:14.514Z,101667.56
2022-11-02T14:45:51.562Z,101685.44
2022-11-02T14:48:19.818Z,101689.97
2022-11-02T14:50:59.854Z,101685.22
2022-11-02T14:53:30.966Z,101694.97
2022-11-02T14:55:59.199Z,101658.72
2022-11-02T14:58:31.729Z,101678.38
2022-11-02T15:01:01.386Z,101629.69
2022-11-02T15:03:34.394Z,101681.91
2022-11-02T15:06:05.093Z,101662.59
2022-11-02T15:08:37.226Z,101636.25
2022-11-02T15:11:38.823Z,101664.56
2022-11-02T15:14:34.652Z,101672.50
2022-11-02T15:17:03.413Z,101671.75
2022-11-02T15:19:37.730Z,101621.38
2022-11-02T15:22:34.284Z,101649.91
2022-11-02T15:25:07.459Z,101633.94
2022-11-02T15:27:36.355Z,101536.97
2022-11-02T15:30:06.923Z,101626.97
2022-11-02T15:32:39.585Z,101657.03
2022-11-02T15:35:19.773Z,101633.06
2022-11-02T15:38:11.232Z,101631.28
2022-11-02T15:40:48.540Z,101654.31
2022-11-02T15:43:31.442Z,101634.88
2022-11-02T15:46:08.306Z,101642.84
2022-11-02T15:48:44.640Z,101639.34
2022-11-02T15:51:19.621Z,101644.13
2022-11-02T15:53:57.388Z,101622.78
2022-11-02T15:56:38.588Z,101616.63
2022-11-02T15:59:28.376Z,101491.25
2022-11-02T16:02:21.667Z,101633.59
2022-11-02T16:04:52.347Z,101625.50
2022-11-02T16:07:21.094Z,101624.50
2022-11-02T16:09:49.837Z,101343.97
2022-11-02T16:12:21.289Z,101589.97
2022-11-02T16:14:55.788Z,101185.31
2022-11-02T16:17:25.729Z,101565.25
2022-11-02T16:19:54.656Z,101555.88
2022-11-02T16:22:26.090Z,101577.75
2022-11-02T16:24:55.134Z,101615.66
2022-11-02T16:27:25.196Z,101619.34
2022-11-02T16:29:53.518Z,101602.38
2022-11-02T16:32:21.731Z,101589.28
2022-11-02T16:34:50.160Z,101584.78
2022-11-02T16:37:19.520Z,101588.09
2022-11-02T16:39:48.251Z,101614.75
2022-11-02T16:42:18.586Z,101585.38
2022-11-02T16:44:57.745Z,101569.81
2022-11-02T16:47:40.961Z,101610.31
2022-11-02T16:50:22.513Z,101605.06
2022-11-02T16:52:55.853Z,101587.41
2022-11-02T16:55:40.096Z,101601.53
2022-11-02T16:58:13.420Z,101593.59
2022-11-02T17:00:54.359Z,101590.13
2022-11-02T17:03:25.898Z,101562.75
2022-11-02T17:05:54.396Z,101588.19
2022-11-02T17:08:31.356Z,101488.66
2022-11-02T17:11:01.489Z,101549.44
2022-11-02T17:13:32.064Z,101572.28
2022-11-02T17:16:07.675Z,101569.63
2022-11-02T17:18:36.624Z,101579.44
2022-11-02T17:21:31.708Z,101556.28
2022-11-02T17:24:00.707Z,101561.56
2022-11-02T17:26:32.310Z,101555.47
2022-11-02T17:29:01.423Z,101557.16
2022-11-02T17:31:32.770Z,101573.16
2022-11-02T17:34:02.974Z,101566.91
2022-11-02T17:36:31.231Z,101554.56
2022-11-02T17:39:05.941Z,101566.00
2022-11-02T17:41:57.273Z,101566.91
2022-11-02T17:44:25.523Z,101551.78
2022-11-02T17:46:55.869Z,101520.34
2022-11-02T17:49:24.023Z,101533.28
2022-11-02T17:51:52.160Z,101553.00
2022-11-02T17:54:20.287Z,101539.56
2022-11-02T17:56:48.616Z,101530.97
2022-11-02T17:59:16.945Z,101526.34
2022-11-02T18:01:45.334Z,101560.09
2022-11-02T18:04:14.957Z,101506.03
2022-11-02T18:06:43.242Z,101519.34
2022-11-02T18:09:19.647Z,101528.97
2022-11-02T18:11:47.923Z,101512.19
2022-11-02T18:14:17.031Z,101420.50
2022-11-02T18:16:45.832Z,101413.47
2022-11-02T18:19:16.997Z,101527.50
2022-11-02T18:21:45.653Z,101529.22
2022-11-02T18:24:13.840Z,101480.63
2022-11-02T18:26:44.303Z,101492.88
2022-11-02T18:29:15.340Z,101498.25
2022-11-02T18:31:43.578Z,101494.75
2022-11-02T18:34:11.863Z,101513.31
2022-11-02T18:36:43.172Z,101454.88
2022-11-02T18:39:11.741Z,101478.75
2022-11-02T18:41:43.136Z,101416.00
2022-11-02T18:44:15.162Z,101499.13
2022-11-02T18:46:43.964Z,101445.22
2022-11-02T18:49:12.105Z,101445.06
2022-11-02T18:51:43.467Z,101440.69
2022-11-02T18:54:12.083Z,101477.81
2022-11-02T18:56:40.427Z,101416.78
2022-11-02T18:59:08.665Z,101453.97
2022-11-02T19:01:37.249Z,101442.31
2022-11-02T19:04:05.967Z,101452.03
2022-11-02T19:06:52.711Z,101397.34
2022-11-02T19:09:24.360Z,101462.78
2022-11-02T19:11:54.620Z,101414.91
2022-11-02T19:14:24.062Z,101439.91
2022-11-02T19:16:52.313Z,101356.84
2022-11-02T19:19:20.662Z,101394.47
2022-11-02T19:21:49.205Z,101416.59
2022-11-02T19:24:17.358Z,101408.56
2022-11-02T19:26:46.951Z,101410.50
2022-11-02T19:29:15.312Z,101385.69
2022-11-02T19:31:43.777Z,101407.72
2022-11-02T19:34:12.265Z,101309.78
2022-11-02T19:36:40.560Z,101410.56
2022-11-02T19:39:09.682Z,101213.84
2022-11-02T19:41:38.470Z,101347.94
2022-11-02T19:44:08.428Z,101354.84
2022-11-02T19:46:36.740Z,101390.09
2022-11-02T19:49:05.187Z,101376.81
2022-11-02T19:51:33.449Z,101386.69
2022-11-02T19:54:02.649Z,101383.22
2022-11-02T19:56:32.434Z,101345.00
2022-11-02T19:59:01.000Z,101359.16
2022-11-02T20:01:31.862Z,101352.34
2022-11-02T20:04:00.622Z,101176.88
2022-11-02T20:06:30.265Z,101359.09
2022-11-02T20:08:59.518Z,101375.19
2022-11-02T20:11:28.566Z,101347.63
2022-11-02T20:13:57.829Z,101404.38
2022-11-02T20:16:26.628Z,101364.50
2022-11-02T20:18:56.681Z,101360.97
2022-11-02T20:21:32.472Z,101341.50
2022-11-02T20:24:04.649Z,101353.13
2022-11-02T20:26:34.072Z,101319.50
2022-11-02T20:29:05.918Z,101358.56
2022-11-02T20:31:35.539Z,101328.34
2022-11-02T20:34:06.864Z,101347.75
2022-11-02T20:36:35.737Z,101366.59
2022-11-02T20:39:05.612Z,101348.81
2022-11-02T20:41:33.947Z,101348.75
2022-11-02T20:44:03.425Z,101354.06
2022-11-02T20:46:41.983Z,101306.59
2022-11-02T20:49:21.889Z,101336.22
2022-11-02T20:51:57.544Z,101350.41
2022-11-02T20:54:29.403Z,101359.31
2022-11-02T20:56:57.762Z,101326.53
2022-11-02T20:59:26.508Z,101276.09
2022-11-02T21:01:54.977Z,101327.28
2022-11-02T21:04:24.699Z,101329.13
2022-11-02T21:06:52.902Z,101308.00
2022-11-02T21:09:21.372Z,101305.31
2022-11-02T21:12:06.847Z,101257.84
2022-11-02T21:14:35.044Z,101316.72
2022-11-02T21:17:03.869Z,101314.94
2022-11-02T21:19:33.398Z,101306.91
2022-11-02T21:22:01.768Z,101305.16
2022-11-02T21:24:30.423Z,101281.34
2022-11-02T21:26:58.604Z,101286.59
2022-11-02T21:29:26.897Z,101276.06
2022-11-02T21:31:55.245Z,101303.50
2022-11-02T21:34:23.477Z,101294.69
2022-11-02T21:36:53.231Z,101307.94
2022-11-02T21:39:21.456Z,101295.59
2022-11-02T21:41:49.644Z,101282.25
2022-11-02T21:44:17.810Z,101269.81
2022-11-02T21:46:46.049Z,101289.22
2022-11-02T21:49:14.287Z,101258.31
2022-11-02T21:51:43.011Z,101260.94
2022-11-02T21:54:12.636Z,101230.09
2022-11-02T21:56:40.981Z,101252.00
2022-11-02T21:59:09.858Z,101234.53
2022-11-02T22:01:49.053Z,101293.81
2022-11-02T22:04:19.853Z,101236.31
2022-11-02T22:06:48.244Z,101112.94
2022-11-02T22:09:17.884Z,101203.56
2022-11-02T22:11:46.329Z,100935.41
2022-11-02T22:14:14.053Z,101235.22
2022-11-02T22:16:43.496Z,101263.50
2022-11-02T22:19:13.272Z,101255.50
2022-11-02T22:21:42.736Z,101208.00
2022-11-02T22:24:13.617Z,101211.38
2022-11-02T22:26:43.302Z,101207.75
2022-11-02T22:29:11.783Z,101211.34
2022-11-02T22:31:41.747Z,100845.59
2022-11-02T22:34:11.567Z,101190.31
2022-11-02T22:36:42.360Z,101200.50
2022-11-02T22:39:12.579Z,101190.00
2022-11-02T22:41:43.907Z,101217.44
2022-11-02T22:44:13.517Z,101179.47
2022-11-02T22:46:43.468Z,101194.41
2022-11-02T22:49:13.319Z,101196.31
2022-11-02T22:51:43.239Z,101127.34
2022-11-02T22:54:14.846Z,101159.00
2022-11-02T22:56:45.080Z,100765.50
2022-11-02T22:59:13.752Z,101155.44
2022-11-02T23:01:42.387Z,101152.72
2022-11-02T23:04:13.311Z,101194.41
2022-11-02T23:06:41.655Z,101150.03
2022-11-02T23:09:11.807Z,101157.19
2022-11-02T23:11:39.185Z,101154.50
2022-11-02T23:14:09.952Z,101141.31
2022-11-02T23:16:39.757Z,101177.44
2022-11-02T23:19:30.476Z,101119.28
2022-11-02T23:22:18.151Z,101140.19
2022-11-02T23:25:05.006Z,101134.19
2022-11-02T23:27:34.014Z,101153.63
2022-11-02T23:30:20.794Z,101124.47
2022-11-02T23:32:50.666Z,101149.25
2022-11-02T23:35:36.189Z,101161.53
2022-11-02T23:38:07.667Z,101137.72
2022-11-02T23:40:35.931Z,101077.06
2022-11-02T23:43:06.111Z,101114.63
2022-11-02T23:45:36.122Z,101092.38
2022-11-02T23:48:06.933Z,101123.44
2022-11-02T23:50:51.799Z,101077.56
2022-11-02T23:53:39.015Z,101008.28
2022-11-02T23:56:29.472Z,101081.19
2022-11-02T23:59:07.293Z,101099.78
